| time (UTC) | temp F | wind direction | speed MPH | gust MPH | rain 1hr in | rain 24hr in | rain mn in | humidity % | barometer mb |
| 20260508225444 | 59 | 293 | 0.0 | 0.0 | 0.00 | 0.00 | 0.00 | 65 | 1017.1 |
| 20260508224941 | 59 | 293 | 1.0 | 2.0 | 0.00 | 0.00 | 0.00 | 63 | 1017.1 |
| 20260508224438 | 59 | 288 | 3.0 | 3.0 | 0.00 | 0.00 | 0.00 | 62 | 1017.2 |
| 20260508223936 | 60 | 292 | 0.0 | 1.0 | 0.00 | 0.00 | 0.00 | 66 | 1017.1 |
| 20260508223434 | 60 | 297 | 0.0 | 1.0 | 0.00 | 0.00 | 0.00 | 65 | 1017.2 |
| 20260508222930 | 60 | 289 | 0.0 | 1.0 | 0.00 | 0.00 | 0.00 | 61 | 1016.9 |
| 20260508222428 | 60 | 296 | 0.0 | 2.0 | 0.00 | 0.00 | 0.00 | 63 | 1017.2 |
| 20260508221924 | 60 | 289 | 0.0 | 0.0 | 0.00 | 0.00 | 0.00 | 67 | 1017.0 |
| 20260508221420 | 60 | 293 | 0.0 | 0.0 | 0.00 | 0.00 | 0.00 | 64 | 1017.0 |
| 20260508220917 | 60 | 293 | 0.0 | 0.0 | 0.00 | 0.00 | 0.00 | 63 | 1017.0 |
| 20260508220413 | 60 | 290 | 1.0 | 1.0 | 0.00 | 0.00 | 0.00 | 63 | 1016.9 |
| 20260508215909 | 60 | 289 | 0.0 | 0.0 | 0.00 | 0.00 | 0.00 | 62 | 1017.1 |
| 20260508215407 | 60 | 289 | 0.0 | 0.0 | 0.00 | 0.00 | 0.00 | 60 | 1017.2 |
| 20260508214903 | 60 | 305 | 0.0 | 1.0 | 0.00 | 0.00 | 0.00 | 61 | 1017.1 |
| 20260508214401 | 62 | 261 | 0.0 | 2.0 | 0.00 | 0.00 | 0.00 | 60 | 1017.1 |
| 20260508213857 | 62 | 289 | 0.0 | 1.0 | 0.00 | 0.00 | 0.00 | 60 | 1017.3 |
| 20260508213354 | 62 | 323 | 2.0 | 3.0 | 0.00 | 0.00 | 0.00 | 59 | 1017.0 |
| 20260508212850 | 64 | 290 | 0.0 | 2.0 | 0.00 | 0.00 | 0.00 | 55 | 1016.7 |
| 20260508212347 | 65 | 297 | 0.0 | 2.0 | 0.00 | 0.00 | 0.00 | 53 | 1016.7 |
| 20260508211842 | 63 | 302 | 0.0 | 1.0 | 0.00 | 0.00 | 0.00 | 60 | 1016.7 |
| 20260508211338 | 62 | 319 | 2.0 | 2.0 | 0.00 | 0.00 | 0.00 | 57 | 1016.7 |
| 20260508210836 | 63 | 293 | 1.0 | 2.0 | 0.00 | 0.00 | 0.00 | 55 | 1016.7 |
| 20260508210332 | 64 | 336 | 3.0 | 3.0 | 0.00 | 0.00 | 0.00 | 54 | 1016.8 |
| 20260508205829 | 64 | 308 | 0.0 | 1.0 | 0.00 | 0.00 | 0.00 | 56 | 1016.8 |
| 20260508205326 | 63 | 297 | 0.0 | 0.0 | 0.00 | 0.00 | 0.00 | 55 | 1016.8 |
| 20260508204822 | 62 | 298 | 0.0 | 1.0 | 0.00 | 0.00 | 0.00 | 57 | 1017.0 |
| 20260508204320 | 62 | 299 | 1.0 | 2.0 | 0.00 | 0.00 | 0.00 | 55 | 1017.0 |
| 20260508203815 | 62 | 297 | 0.0 | 1.0 | 0.00 | 0.00 | 0.00 | 58 | 1017.0 |
| 20260508203312 | 62 | 292 | 0.0 | 0.0 | 0.00 | 0.00 | 0.00 | 53 | 1016.9 |
| 20260508202807 | 63 | 301 | 0.0 | 0.0 | 0.00 | 0.00 | 0.00 | 56 | 1017.2 |
| 20260508202307 | 62 | 279 | 1.0 | 2.0 | 0.00 | 0.00 | 0.00 | 52 | 1016.9 |
| 20260508201802 | 63 | 297 | 0.0 | 1.0 | 0.00 | 0.00 | 0.00 | 52 | 1017.1 |
| 20260508201259 | 63 | 295 | 0.0 | 1.0 | 0.00 | 0.00 | 0.00 | 57 | 1017.0 |
| 20260508200755 | 64 | 346 | 3.0 | 3.0 | 0.00 | 0.00 | 0.00 | 52 | 1017.2 |
| 20260508200252 | 64 | 289 | 2.0 | 2.0 | 0.00 | 0.00 | 0.00 | 52 | 1017.4 |
| 20260508195748 | 64 | 291 | 1.0 | 3.0 | 0.00 | 0.00 | 0.00 | 51 | 1017.6 |
| 20260508195245 | 64 | 299 | 0.0 | 1.0 | 0.00 | 0.00 | 0.00 | 53 | 1017.4 |
| 20260508194741 | 64 | 295 | 1.0 | 2.0 | 0.00 | 0.00 | 0.00 | 55 | 1017.4 |
| 20260508194238 | 64 | 288 | 0.0 | 1.0 | 0.00 | 0.00 | 0.00 | 53 | 1017.7 |
| 20260508193735 | 66 | 291 | 0.0 | 2.0 | 0.00 | 0.00 | 0.00 | 51 | 1017.9 |
| 20260508193232 | 66 | 287 | 1.0 | 2.0 | 0.00 | 0.00 | 0.00 | 51 | 1017.8 |
| 20260508192728 | 64 | 276 | 1.0 | 1.0 | 0.00 | 0.00 | 0.00 | 53 | 1018.1 |
| 20260508192225 | 63 | 296 | 0.0 | 2.0 | 0.00 | 0.00 | 0.00 | 50 | 1018.0 |
| 20260508191723 | 62 | 282 | 2.0 | 2.0 | 0.00 | 0.00 | 0.00 | 58 | 1018.0 |
| 20260508191220 | 62 | 291 | 0.0 | 1.0 | 0.00 | 0.00 | 0.00 | 52 | 1018.3 |
| 20260508190717 | 63 | 308 | 0.0 | 1.0 | 0.00 | 0.00 | 0.00 | 51 | 1018.2 |
| 20260508190213 | 63 | 286 | 0.0 | 1.0 | 0.00 | 0.00 | 0.00 | 51 | 1018.5 |
| 20260508185710 | 63 | 291 | 0.0 | 1.0 | 0.00 | 0.00 | 0.00 | 56 | 1018.5 |
| 20260508185208 | 65 | 292 | 1.0 | 5.0 | 0.00 | 0.00 | 0.00 | 51 | 1018.4 |
| 20260508184704 | 66 | 299 | 0.0 | 1.0 | 0.00 | 0.00 | 0.00 | 49 | 1018.5 |
| 20260508184156 | 64 | 298 | 1.0 | 3.0 | 0.00 | 0.00 | 0.00 | 50 | 1018.5 |
| 20260508183652 | 64 | 294 | 1.0 | 3.0 | 0.00 | 0.00 | 0.00 | 50 | 1018.7 |
| 20260508183148 | 63 | 271 | 2.0 | 3.0 | 0.00 | 0.00 | 0.00 | 51 | 1018.5 |
| 20260508182644 | 64 | 285 | 2.0 | 2.0 | 0.00 | 0.00 | 0.00 | 52 | 1018.5 |
| 20260508182141 | 65 | 303 | 1.0 | 3.0 | 0.00 | 0.00 | 0.00 | 48 | 1018.6 |
| 20260508181637 | 65 | 294 | 1.0 | 3.0 | 0.00 | 0.00 | 0.00 | 49 | 1018.7 |
| 20260508181134 | 62 | 315 | 0.0 | 1.0 | 0.00 | 0.00 | 0.00 | 49 | 1018.9 |
| 20260508180631 | 60 | 298 | 1.0 | 3.0 | 0.00 | 0.00 | 0.00 | 50 | 1019.0 |
| 20260508180128 | 62 | 300 | 1.0 | 2.0 | 0.00 | 0.00 | 0.00 | 51 | 1018.9 |
| 20260508175624 | 64 | 288 | 0.0 | 2.0 | 0.00 | 0.00 | 0.00 | 50 | 1018.9 |
| 20260508175121 | 64 | 302 | 1.0 | 2.0 | 0.00 | 0.00 | 0.00 | 42 | 1019.0 |
| 20260508174619 | 64 | 299 | 1.0 | 3.0 | 0.00 | 0.00 | 0.00 | 49 | 1019.0 |
| 20260508174115 | 63 | 305 | 0.0 | 0.0 | 0.00 | 0.00 | 0.00 | 53 | 1019.0 |
| 20260508173612 | 61 | 303 | 0.0 | 1.0 | 0.00 | 0.00 | 0.00 | 55 | 1018.9 |
| 20260508173108 | 59 | 317 | 1.0 | 1.0 | 0.00 | 0.00 | 0.00 | 54 | 1019.0 |
| 20260508172606 | 60 | 334 | 3.0 | 3.0 | 0.00 | 0.00 | 0.00 | 55 | 1019.1 |
| 20260508172102 | 61 | 298 | 1.0 | 2.0 | 0.00 | 0.00 | 0.00 | 50 | 1019.6 |
| 20260508171559 | 63 | 296 | 0.0 | 2.0 | 0.00 | 0.00 | 0.00 | 48 | 1019.4 |
| 20260508171055 | 64 | 294 | 1.0 | 2.0 | 0.00 | 0.00 | 0.00 | 47 | 1019.3 |
| 20260508170552 | 64 | 297 | 1.0 | 2.0 | 0.00 | 0.00 | 0.00 | 47 | 1019.4 |
| 20260508170050 | 64 | 297 | 0.0 | 1.0 | 0.00 | 0.00 | 0.00 | 51 | 1019.3 |
| 20260508165547 | 63 | 297 | 1.0 | 1.0 | 0.00 | 0.00 | 0.00 | 47 | 1019.5 |
| 20260508165044 | 63 | 293 | 0.0 | 0.0 | 0.00 | 0.00 | 0.00 | 53 | 1019.6 |
| 20260508164540 | 62 | 295 | 1.0 | 2.0 | 0.00 | 0.00 | 0.00 | 49 | 1019.8 |
| 20260508164037 | 61 | 292 | 0.0 | 1.0 | 0.00 | 0.00 | 0.00 | 56 | 1019.8 |
| 20260508163534 | 60 | 296 | 0.0 | 2.0 | 0.00 | 0.00 | 0.00 | 57 | 1019.8 |
| 20260508163030 | 60 | 295 | 0.0 | 1.0 | 0.00 | 0.00 | 0.00 | 51 | 1019.9 |
| 20260508162527 | 60 | 298 | 0.0 | 0.0 | 0.00 | 0.00 | 0.00 | 53 | 1020.2 |
| 20260508162025 | 59 | 293 | 0.0 | 1.0 | 0.00 | 0.00 | 0.00 | 51 | 1020.0 |
| 20260508161521 | 59 | 295 | 1.0 | 2.0 | 0.00 | 0.00 | 0.00 | 51 | 1020.0 |
| 20260508161018 | 58 | 295 | 1.0 | 2.0 | 0.00 | 0.00 | 0.00 | 55 | 1020.3 |
| 20260508160517 | 58 | 295 | 0.0 | 0.0 | 0.00 | 0.00 | 0.00 | 56 | 1020.2 |
| 20260508160014 | 58 | 295 | 0.0 | 0.0 | 0.00 | 0.00 | 0.00 | 54 | 1020.3 |
| 20260508155510 | 58 | 291 | 0.0 | 1.0 | 0.00 | 0.00 | 0.00 | 51 | 1020.4 |
| 20260508155007 | 59 | 301 | 0.0 | 1.0 | 0.00 | 0.00 | 0.00 | 48 | 1020.2 |
| 20260508154505 | 58 | 282 | 2.0 | 3.0 | 0.00 | 0.00 | 0.00 | 54 | 1020.5 |
| 20260508154001 | 57 | 296 | 0.0 | 0.0 | 0.00 | 0.00 | 0.00 | 58 | 1020.5 |
| 20260508153458 | 57 | 295 | 1.0 | 2.0 | 0.00 | 0.00 | 0.00 | 64 | 1020.5 |
| 20260508152954 | 56 | 287 | 1.0 | 1.0 | 0.00 | 0.00 | 0.00 | 61 | 1020.6 |
| 20260508152451 | 57 | 293 | 1.0 | 2.0 | 0.00 | 0.00 | 0.00 | 60 | 1020.6 |
| 20260508151947 | 57 | 296 | 1.0 | 3.0 | 0.00 | 0.00 | 0.00 | 60 | 1020.8 |
| 20260508151444 | 56 | 295 | 0.0 | 2.0 | 0.00 | 0.00 | 0.00 | 60 | 1020.6 |
| 20260508150940 | 54 | 295 | 1.0 | 1.0 | 0.00 | 0.00 | 0.00 | 64 | 1020.6 |
| 20260508150437 | 53 | 288 | 1.0 | 1.0 | 0.00 | 0.00 | 0.00 | 63 | 1020.5 |
| 20260508145933 | 54 | 293 | 0.0 | 1.0 | 0.00 | 0.00 | 0.00 | 64 | 1020.6 |
| 20260508145430 | 55 | 295 | 1.0 | 1.0 | 0.00 | 0.00 | 0.00 | 62 | 1020.5 |
| 20260508144927 | 56 | 303 | 1.0 | 1.0 | 0.00 | 0.00 | 0.00 | 60 | 1020.6 |
| 20260508144424 | 56 | 271 | 0.0 | 2.0 | 0.00 | 0.00 | 0.00 | 59 | 1020.5 |
| 20260508143922 | 55 | 296 | 0.0 | 2.0 | 0.00 | 0.00 | 0.00 | 65 | 1020.8 |
| 20260508143419 | 54 | 301 | 1.0 | 2.0 | 0.00 | 0.00 | 0.00 | 68 | 1020.7 |
| 20260508142915 | 54 | 293 | 2.0 | 2.0 | 0.00 | 0.00 | 0.00 | 69 | 1020.6 |
| 20260508142413 | 53 | 291 | 1.0 | 2.0 | 0.00 | 0.00 | 0.00 | 69 | 1020.7 |
| 20260508141909 | 53 | 290 | 1.0 | 1.0 | 0.00 | 0.00 | 0.00 | 69 | 1020.6 |
| 20260508141406 | 52 | 297 | 0.0 | 1.0 | 0.00 | 0.00 | 0.00 | 73 | 1020.7 |
| 20260508140903 | 51 | 300 | 0.0 | 2.0 | 0.00 | 0.00 | 0.00 | 73 | 1020.8 |
| 20260508140401 | 51 | 295 | 0.0 | 0.0 | 0.00 | 0.00 | 0.00 | 75 | 1021.0 |
| 20260508135856 | 51 | 291 | 0.0 | 1.0 | 0.00 | 0.00 | 0.00 | 77 | 1020.8 |
| 20260508135354 | 50 | 295 | 0.0 | 0.0 | 0.00 | 0.00 | 0.00 | 79 | 1020.7 |
| 20260508134849 | 50 | 292 | 1.0 | 1.0 | 0.00 | 0.00 | 0.00 | 77 | 1020.8 |
| 20260508134345 | 49 | 303 | 0.0 | 1.0 | 0.00 | 0.00 | 0.00 | 79 | 1021.0 |
| 20260508133842 | 48 | 290 | 0.0 | 1.0 | 0.00 | 0.00 | 0.00 | 80 | 1020.7 |
| 20260508133340 | 48 | 295 | 0.0 | 1.0 | 0.00 | 0.00 | 0.00 | 83 | 1021.0 |
| 20260508132837 | 48 | 301 | 1.0 | 2.0 | 0.00 | 0.00 | 0.00 | 83 | 1020.8 |
| 20260508132335 | 47 | 290 | 0.0 | 1.0 | 0.00 | 0.00 | 0.00 | 84 | 1021.1 |
| 20260508131831 | 47 | 286 | 2.0 | 2.0 | 0.00 | 0.00 | 0.00 | 84 | 1021.0 |
| 20260508131327 | 47 | 291 | 0.0 | 0.0 | 0.00 | 0.00 | 0.00 | 85 | 1020.9 |
| 20260508130824 | 46 | 295 | 0.0 | 0.0 | 0.00 | 0.00 | 0.00 | 86 | 1020.7 |
| 20260508130321 | 46 | 294 | 0.0 | 0.0 | 0.00 | 0.00 | 0.00 | 89 | 1020.6 |
| 20260508125817 | 46 | 294 | 0.0 | 1.0 | 0.00 | 0.00 | 0.00 | 90 | 1020.9 |
| 20260508125313 | 45 | 286 | 1.0 | 1.0 | 0.00 | 0.00 | 0.00 | 90 | 1020.8 |
| 20260508124811 | 45 | 290 | 1.0 | 1.0 | 0.00 | 0.00 | 0.00 | 92 | 1020.6 |
| 20260508124308 | 45 | 291 | 0.0 | 1.0 | 0.00 | 0.00 | 0.00 | 93 | 1020.6 |
| 20260508123806 | 44 | 290 | 0.0 | 0.0 | 0.00 | 0.00 | 0.00 | 95 | 1020.5 |
| 20260508123304 | 44 | 294 | 0.0 | 0.0 | 0.00 | 0.00 | 0.00 | 95 | 1020.4 |
| 20260508122800 | 44 | 299 | 0.0 | 1.0 | 0.00 | 0.00 | 0.00 | 96 | 1020.6 |
| 20260508122257 | 44 | 294 | 0.0 | 0.0 | 0.00 | 0.00 | 0.00 | 96 | 1020.4 |
| 20260508121754 | 43 | 294 | 0.0 | 0.0 | 0.00 | 0.00 | 0.00 | 96 | 1020.3 |
| 20260508121253 | 43 | 299 | 0.0 | 1.0 | 0.00 | 0.00 | 0.00 | 96 | 1020.3 |
| 20260508120749 | 43 | 294 | 0.0 | 0.0 | 0.00 | 0.00 | 0.00 | 97 | 1020.3 |
| 20260508120248 | 43 | 294 | 0.0 | 0.0 | 0.00 | 0.00 | 0.00 | 97 | 1020.3 |
| 20260508115745 | 43 | 294 | 0.0 | 0.0 | 0.00 | 0.00 | 0.00 | 97 | 1020.5 |
| 20260508115242 | 43 | 294 | 0.0 | 0.0 | 0.00 | 0.00 | 0.00 | 98 | 1020.3 |
| 20260508114738 | 43 | 300 | 1.0 | 1.0 | 0.00 | 0.00 | 0.00 | 98 | 1020.0 |
| 20260508114235 | 43 | 300 | 0.0 | 0.0 | 0.00 | 0.00 | 0.00 | 98 | 1019.9 |
| 20260508113732 | 43 | 298 | 0.0 | 0.0 | 0.00 | 0.00 | 0.00 | 98 | 1019.6 |
| 20260508113231 | 43 | 297 | 0.0 | 0.0 | 0.00 | 0.00 | 0.00 | 98 | 1019.7 |
| 20260508112726 | 43 | 297 | 0.0 | 0.0 | 0.00 | 0.00 | 0.00 | 99 | 1019.8 |
| 20260508112224 | 43 | 299 | 0.0 | 0.0 | 0.00 | 0.00 | 0.00 | 99 | 1019.5 |
| 20260508111720 | 43 | 297 | 0.0 | 0.0 | 0.00 | 0.00 | 0.00 | 99 | 1019.7 |
| 20260508111218 | 43 | 297 | 0.0 | 0.0 | 0.00 | 0.00 | 0.00 | 99 | 1019.5 |
| 20260508110715 | 43 | 299 | 0.0 | 0.0 | 0.00 | 0.00 | 0.00 | 99 | 1019.3 |
| 20260508110212 | 43 | 294 | 0.0 | 0.0 | 0.00 | 0.00 | 0.00 | 99 | 1019.3 |
| 20260508105711 | 43 | 294 | 0.0 | 0.0 | 0.00 | 0.00 | 0.00 | 99 | 1019.2 |
| 20260508105209 | 43 | 294 | 0.0 | 0.0 | 0.00 | 0.00 | 0.00 | 99 | 1019.1 |
| 20260508104706 | 43 | 295 | 0.0 | 0.0 | 0.00 | 0.00 | 0.00 | 99 | 1019.2 |
| 20260508104203 | 42 | 294 | 0.0 | 0.0 | 0.00 | 0.00 | 0.00 | 99 | 1019.1 |
| 20260508103700 | 42 | 295 | 0.0 | 0.0 | 0.00 | 0.00 | 0.00 | 99 | 1019.2 |
| 20260508103157 | 42 | 294 | 0.0 | 0.0 | 0.00 | 0.00 | 0.00 | 99 | 1019.0 |
| 20260508102654 | 42 | 297 | 0.0 | 0.0 | 0.00 | 0.00 | 0.00 | 99 | 1018.9 |
| 20260508102152 | 42 | 297 | 0.0 | 0.0 | 0.00 | 0.00 | 0.00 | 99 | 1018.6 |
| 20260508101649 | 42 | 297 | 0.0 | 0.0 | 0.00 | 0.00 | 0.00 | 99 | 1018.7 |
| 20260508101147 | 42 | 297 | 0.0 | 0.0 | 0.00 | 0.00 | 0.00 | 99 | 1018.5 |
| 20260508100644 | 41 | 297 | 0.0 | 0.0 | 0.00 | 0.00 | 0.00 | 98 | 1018.4 |
| 20260508100142 | 41 | 297 | 0.0 | 0.0 | 0.00 | 0.00 | 0.00 | 98 | 1018.4 |
| 20260508095638 | 41 | 297 | 0.0 | 0.0 | 0.00 | 0.00 | 0.00 | 98 | 1018.5 |
| 20260508095135 | 41 | 297 | 0.0 | 0.0 | 0.00 | 0.00 | 0.00 | 98 | 1018.2 |
| 20260508094632 | 41 | 294 | 0.0 | 0.0 | 0.00 | 0.00 | 0.00 | 98 | 1018.2 |
| 20260508094129 | 41 | 294 | 0.0 | 0.0 | 0.00 | 0.00 | 0.00 | 98 | 1018.1 |
| 20260508093626 | 41 | 294 | 0.0 | 0.0 | 0.00 | 0.00 | 0.00 | 98 | 1018.5 |
| 20260508093124 | 40 | 294 | 0.0 | 0.0 | 0.00 | 0.00 | 0.00 | 98 | 1018.2 |
| 20260508092621 | 41 | 294 | 0.0 | 0.0 | 0.00 | 0.00 | 0.00 | 98 | 1018.1 |
| 20260508092120 | 41 | 294 | 0.0 | 0.0 | 0.00 | 0.00 | 0.00 | 98 | 1018.3 |
| 20260508091616 | 41 | 294 | 0.0 | 0.0 | 0.00 | 0.00 | 0.00 | 98 | 1018.2 |
| 20260508091113 | 41 | 294 | 0.0 | 0.0 | 0.00 | 0.00 | 0.00 | 98 | 1018.1 |
| 20260508090612 | 40 | 294 | 0.0 | 0.0 | 0.00 | 0.00 | 0.00 | 98 | 1018.2 |
| 20260508090108 | 41 | 294 | 0.0 | 0.0 | 0.00 | 0.00 | 0.00 | 98 | 1018.3 |
| 20260508085604 | 40 | 294 | 0.0 | 0.0 | 0.00 | 0.00 | 0.00 | 98 | 1018.1 |
| 20260508085102 | 40 | 294 | 0.0 | 0.0 | 0.00 | 0.00 | 0.00 | 97 | 1018.1 |
| 20260508084558 | 41 | 294 | 0.0 | 0.0 | 0.00 | 0.00 | 0.00 | 97 | 1018.2 |
| 20260508084056 | 41 | 294 | 0.0 | 0.0 | 0.00 | 0.00 | 0.00 | 97 | 1018.0 |
| 20260508083552 | 41 | 294 | 0.0 | 0.0 | 0.00 | 0.00 | 0.00 | 97 | 1018.0 |
| 20260508083049 | 41 | 294 | 0.0 | 0.0 | 0.00 | 0.00 | 0.00 | 97 | 1017.9 |
| 20260508082545 | 41 | 297 | 0.0 | 0.0 | 0.00 | 0.00 | 0.00 | 97 | 1017.9 |
| 20260508082042 | 41 | 297 | 0.0 | 0.0 | 0.00 | 0.00 | 0.00 | 97 | 1017.9 |
| 20260508081540 | 41 | 299 | 0.0 | 0.0 | 0.00 | 0.00 | 0.00 | 97 | 1018.0 |
| 20260508081036 | 41 | 303 | 1.0 | 1.0 | 0.00 | 0.00 | 0.00 | 97 | 1017.7 |
| 20260508080534 | 41 | 294 | 0.0 | 0.0 | 0.00 | 0.00 | 0.00 | 96 | 1017.9 |
| 20260508080031 | 41 | 294 | 0.0 | 0.0 | 0.00 | 0.00 | 0.00 | 96 | 1017.8 |
| 20260508075527 | 41 | 294 | 0.0 | 0.0 | 0.00 | 0.00 | 0.00 | 96 | 1017.8 |
| 20260508075025 | 42 | 294 | 0.0 | 0.0 | 0.00 | 0.00 | 0.00 | 96 | 1017.7 |
| 20260508074523 | 42 | 301 | 0.0 | 1.0 | 0.00 | 0.00 | 0.00 | 96 | 1017.6 |
| 20260508074019 | 42 | 295 | 0.0 | 0.0 | 0.00 | 0.00 | 0.00 | 96 | 1017.7 |
| 20260508073517 | 42 | 294 | 0.0 | 0.0 | 0.00 | 0.00 | 0.00 | 95 | 1017.8 |
| 20260508073015 | 42 | 294 | 0.0 | 0.0 | 0.00 | 0.00 | 0.00 | 95 | 1017.3 |
| 20260508072510 | 42 | 294 | 0.0 | 0.0 | 0.00 | 0.00 | 0.00 | 95 | 1017.4 |
| 20260508072007 | 42 | 300 | 0.0 | 1.0 | 0.00 | 0.00 | 0.00 | 94 | 1017.3 |
| 20260508071505 | 43 | 296 | 0.0 | 0.0 | 0.00 | 0.00 | 0.00 | 94 | 1017.4 |
| 20260508071002 | 43 | 299 | 0.0 | 0.0 | 0.00 | 0.00 | 0.00 | 94 | 1017.4 |
| 20260508070500 | 43 | 297 | 0.0 | 0.0 | 0.00 | 0.00 | 0.00 | 93 | 1017.3 |
| 20260508065958 | 43 | 294 | 0.0 | 0.0 | 0.00 | 0.00 | 0.00 | 93 | 1017.2 |
| 20260508065456 | 44 | 297 | 0.0 | 0.0 | 0.00 | 0.00 | 0.00 | 93 | 1017.2 |
| 20260508064954 | 44 | 303 | 0.0 | 0.0 | 0.00 | 0.00 | 0.00 | 92 | 1017.3 |
| 20260508064451 | 44 | 294 | 0.0 | 0.0 | 0.00 | 0.00 | 0.00 | 91 | 1017.2 |
| 20260508063948 | 44 | 302 | 0.0 | 1.0 | 0.00 | 0.00 | 0.00 | 91 | 1017.3 |
| 20260508063445 | 45 | 297 | 0.0 | 0.0 | 0.00 | 0.00 | 0.00 | 90 | 1017.3 |
| 20260508062943 | 45 | 300 | 0.0 | 1.0 | 0.00 | 0.00 | 0.00 | 90 | 1017.1 |
| 20260508062441 | 45 | 297 | 0.0 | 1.0 | 0.00 | 0.00 | 0.00 | 89 | 1017.3 |
| 20260508061937 | 45 | 305 | 1.0 | 1.0 | 0.00 | 0.00 | 0.00 | 90 | 1017.2 |
| 20260508061435 | 45 | 299 | 0.0 | 1.0 | 0.00 | 0.00 | 0.00 | 90 | 1017.0 |
| 20260508060931 | 45 | 294 | 0.0 | 1.0 | 0.00 | 0.00 | 0.00 | 90 | 1017.1 |
| 20260508060429 | 45 | 300 | 0.0 | 1.0 | 0.00 | 0.00 | 0.00 | 90 | 1017.1 |
| 20260508055925 | 46 | 302 | 0.0 | 2.0 | 0.00 | 0.00 | 0.00 | 89 | 1017.0 |
| 20260508055421 | 46 | 295 | 0.0 | 0.0 | 0.00 | 0.00 | 0.00 | 88 | 1017.2 |
| 20260508054918 | 46 | 300 | 0.0 | 1.0 | 0.00 | 0.00 | 0.00 | 87 | 1017.3 |
| 20260508054416 | 46 | 300 | 0.0 | 0.0 | 0.00 | 0.00 | 0.00 | 87 | 1017.1 |
| 20260508053912 | 46 | 324 | 1.0 | 1.0 | 0.00 | 0.00 | 0.00 | 89 | 1017.2 |
| 20260508053409 | 47 | 313 | 1.0 | 1.0 | 0.00 | 0.00 | 0.00 | 88 | 1017.0 |
| 20260508052907 | 46 | 294 | 0.0 | 2.0 | 0.00 | 0.00 | 0.00 | 88 | 1017.4 |
| 20260508052404 | 46 | 296 | 0.0 | 0.0 | 0.00 | 0.00 | 0.00 | 90 | 1017.3 |
| 20260508051900 | 46 | 299 | 1.0 | 1.0 | 0.00 | 0.00 | 0.00 | 90 | 1017.2 |
| 20260508051356 | 46 | 296 | 0.0 | 1.0 | 0.00 | 0.00 | 0.00 | 90 | 1017.2 |
| 20260508050852 | 46 | 290 | 0.0 | 1.0 | 0.00 | 0.00 | 0.00 | 89 | 1017.1 |
| 20260508050349 | 47 | 293 | 0.0 | 0.0 | 0.00 | 0.00 | 0.00 | 89 | 1017.1 |
| 20260508045845 | 47 | 301 | 0.0 | 1.0 | 0.00 | 0.00 | 0.00 | 88 | 1017.2 |
| 20260508045343 | 47 | 327 | 2.0 | 2.0 | 0.00 | 0.00 | 0.00 | 87 | 1017.2 |
| 20260508044841 | 47 | 300 | 0.0 | 1.0 | 0.00 | 0.00 | 0.00 | 88 | 1017.2 |
| 20260508044337 | 47 | 280 | 2.0 | 2.0 | 0.00 | 0.00 | 0.00 | 86 | 1017.4 |
| 20260508043833 | 47 | 300 | 0.0 | 0.0 | 0.00 | 0.00 | 0.00 | 86 | 1017.1 |
| 20260508043330 | 47 | 314 | 2.0 | 2.0 | 0.00 | 0.00 | 0.00 | 86 | 1017.0 |
| 20260508042826 | 48 | 293 | 0.0 | 0.0 | 0.00 | 0.00 | 0.00 | 85 | 1016.8 |
| 20260508042325 | 48 | 306 | 0.0 | 1.0 | 0.00 | 0.00 | 0.00 | 83 | 1016.9 |
| 20260508041821 | 48 | 303 | 1.0 | 2.0 | 0.00 | 0.00 | 0.00 | 81 | 1017.0 |
| 20260508041317 | 48 | 293 | 0.0 | 1.0 | 0.00 | 0.00 | 0.00 | 82 | 1017.1 |
| 20260508040814 | 48 | 293 | 0.0 | 0.0 | 0.00 | 0.00 | 0.00 | 83 | 1017.0 |
| 20260508040312 | 49 | 296 | 0.0 | 0.0 | 0.00 | 0.00 | 0.00 | 81 | 1017.0 |
| 20260508035809 | 49 | 293 | 0.0 | 0.0 | 0.00 | 0.31 | 0.31 | 81 | 1016.9 |
| 20260508035307 | 49 | 289 | 2.0 | 7.0 | 0.00 | 0.31 | 0.31 | 79 | 1017.0 |
| 20260508034802 | 49 | 301 | 0.0 | 2.0 | 0.00 | 0.31 | 0.31 | 81 | 1016.8 |
| 20260508034300 | 49 | 292 | 0.0 | 1.0 | 0.00 | 0.31 | 0.31 | 79 | 1017.0 |
| 20260508033757 | 49 | 295 | 0.0 | 3.0 | 0.00 | 0.31 | 0.31 | 78 | 1016.9 |
| 20260508033255 | 49 | 292 | 1.0 | 1.0 | 0.00 | 0.31 | 0.31 | 78 | 1017.1 |
| 20260508032752 | 50 | 283 | 0.0 | 3.0 | 0.00 | 0.31 | 0.31 | 77 | 1017.1 |
| 20260508032249 | 50 | 285 | 0.0 | 2.0 | 0.00 | 0.31 | 0.31 | 78 | 1016.8 |
| 20260508031746 | 50 | 296 | 0.0 | 1.0 | 0.00 | 0.31 | 0.31 | 78 | 1016.9 |
| 20260508031242 | 50 | 229 | 4.0 | 7.0 | 0.00 | 0.31 | 0.31 | 77 | 1016.7 |
| 20260508030739 | 50 | 291 | 0.0 | 3.0 | 0.00 | 0.31 | 0.31 | 79 | 1016.6 |
| 20260508030236 | 50 | 300 | 1.0 | 11.0 | 0.00 | 0.31 | 0.31 | 76 | 1016.4 |
| 20260508025733 | 50 | 283 | 3.0 | 3.0 | 0.00 | 0.31 | 0.31 | 77 | 1016.6 |
| 20260508025230 | 50 | 262 | 4.0 | 7.0 | 0.00 | 0.31 | 0.31 | 77 | 1016.6 |
| 20260508024726 | 50 | 243 | 2.0 | 5.0 | 0.00 | 0.31 | 0.31 | 77 | 1016.5 |
| 20260508024223 | 50 | 281 | 4.0 | 7.0 | 0.00 | 0.31 | 0.31 | 77 | 1016.5 |
| 20260508023720 | 50 | 279 | 4.0 | 8.0 | 0.00 | 0.31 | 0.31 | 77 | 1016.4 |
| 20260508023217 | 50 | 311 | 6.0 | 10.0 | 0.00 | 0.31 | 0.31 | 78 | 1016.4 |
| 20260508022713 | 50 | 280 | 4.0 | 6.0 | 0.00 | 0.31 | 0.31 | 77 | 1016.3 |
| 20260508022210 | 50 | 277 | 4.0 | 8.0 | 0.00 | 0.31 | 0.31 | 77 | 1016.3 |
| 20260508021706 | 50 | 319 | 3.0 | 8.0 | 0.00 | 0.31 | 0.31 | 78 | 1016.0 |
| 20260508021202 | 50 | 308 | 0.0 | 5.0 | 0.00 | 0.31 | 0.31 | 78 | 1015.9 |
| 20260508020659 | 50 | 249 | 4.0 | 7.0 | 0.00 | 0.31 | 0.31 | 78 | 1016.3 |
| 20260508020157 | 49 | 312 | 3.0 | 3.0 | 0.00 | 0.31 | 0.31 | 80 | 1016.1 |
| 20260508015654 | 49 | 284 | 0.0 | 3.0 | 0.00 | 0.31 | 0.31 | 78 | 1016.3 |
| 20260508015151 | 49 | 287 | 0.0 | 0.0 | 0.00 | 0.31 | 0.31 | 80 | 1016.0 |
| 20260508014647 | 48 | 308 | 2.0 | 3.0 | 0.00 | 0.31 | 0.31 | 80 | 1016.0 |
| 20260508014143 | 48 | 300 | 0.0 | 1.0 | 0.00 | 0.31 | 0.31 | 83 | 1015.8 |
| 20260508013640 | 48 | 286 | 0.0 | 2.0 | 0.00 | 0.31 | 0.31 | 82 | 1015.6 |
| 20260508013136 | 48 | 286 | 0.0 | 1.0 | 0.00 | 0.31 | 0.31 | 84 | 1015.6 |
| 20260508012635 | 48 | 290 | 1.0 | 2.0 | 0.00 | 0.31 | 0.31 | 86 | 1015.7 |
| 20260508012131 | 48 | 293 | 0.0 | 1.0 | 0.00 | 0.31 | 0.31 | 85 | 1015.4 |
| 20260508011630 | 48 | 293 | 1.0 | 5.0 | 0.00 | 0.31 | 0.31 | 85 | 1015.3 |
| 20260508011127 | 48 | 274 | 0.0 | 3.0 | 0.00 | 0.31 | 0.31 | 83 | 1015.6 |
| 20260508010623 | 48 | 290 | 0.0 | 2.0 | 0.00 | 0.31 | 0.31 | 84 | 1015.4 |
| 20260508010122 | 48 | 291 | 1.0 | 2.0 | 0.00 | 0.31 | 0.31 | 83 | 1015.3 |
| 20260508005617 | 49 | 304 | 1.0 | 1.0 | 0.00 | 0.31 | 0.31 | 83 | 1015.4 |
| 20260508005114 | 49 | 300 | 0.0 | 1.0 | 0.00 | 0.31 | 0.31 | 81 | 1015.3 |
| 20260508004610 | 50 | 296 | 0.0 | 0.0 | 0.00 | 0.31 | 0.31 | 80 | 1015.3 |
| 20260508004107 | 50 | 289 | 0.0 | 1.0 | 0.00 | 0.31 | 0.31 | 75 | 1015.4 |
| 20260508003603 | 50 | 284 | 1.0 | 3.0 | 0.00 | 0.31 | 0.31 | 81 | 1015.1 |
| 20260508003101 | 50 | 291 | 0.0 | 1.0 | 0.00 | 0.31 | 0.31 | 80 | 1015.2 |
| 20260508002557 | 51 | 293 | 0.0 | 1.0 | 0.00 | 0.31 | 0.31 | 75 | 1015.0 |
| 20260508002055 | 51 | 298 | 1.0 | 1.0 | 0.00 | 0.31 | 0.31 | 75 | 1015.0 |
| 20260508001550 | 51 | 289 | 0.0 | 2.0 | 0.00 | 0.31 | 0.31 | 74 | 1014.8 |
| 20260508001046 | 51 | 260 | 2.0 | 3.0 | 0.00 | 0.31 | 0.31 | 74 | 1014.8 |
| 20260508000542 | 51 | 291 | 0.0 | 1.0 | 0.00 | 0.31 | 0.31 | 76 | 1014.8 |
| 20260508000040 | 51 | 291 | 1.0 | 2.0 | 0.00 | 0.31 | 0.31 | 78 | 1015.0 |
| 20260507235537 | 52 | 291 | 1.0 | 2.0 | 0.00 | 0.31 | 0.31 | 77 | 1014.8 |
| 20260507235034 | 52 | 287 | 1.0 | 1.0 | 0.00 | 0.31 | 0.31 | 73 | 1015.0 |
| 20260507234530 | 52 | 295 | 1.0 | 9.0 | 0.00 | 0.31 | 0.31 | 73 | 1014.8 |
| 20260507234027 | 52 | 277 | 1.0 | 2.0 | 0.00 | 0.31 | 0.31 | 76 | 1015.1 |
| 20260507233524 | 52 | 316 | 0.0 | 1.0 | 0.00 | 0.31 | 0.31 | 74 | 1015.0 |
| 20260507233023 | 53 | 325 | 5.0 | 7.0 | 0.00 | 0.31 | 0.31 | 73 | 1014.8 |
| 20260507232518 | 53 | 293 | 1.0 | 3.0 | 0.00 | 0.31 | 0.31 | 74 | 1014.5 |
| 20260507232016 | 53 | 281 | 3.0 | 6.0 | 0.00 | 0.31 | 0.31 | 75 | 1014.6 |
| 20260507231512 | 53 | 294 | 1.0 | 9.0 | 0.00 | 0.31 | 0.31 | 74 | 1014.6 |
| 20260507231009 | 53 | 281 | 2.0 | 6.0 | 0.00 | 0.31 | 0.31 | 75 | 1014.5 |
| 20260507230506 | 54 | 281 | 2.0 | 7.0 | 0.00 | 0.31 | 0.31 | 73 | 1014.5 |
| 20260507230001 | 54 | 287 | 2.0 | 3.0 | 0.00 | 0.31 | 0.31 | 75 | 1014.5 |